sensor_id;sensor_type;location;lat;lon;timestamp;P1;durP1;ratioP1;P2;durP2;ratioP2
60233;SDS011;49514;43.538;-5.708;2023-08-20T00:01:56;3.92;;;2.65;;
60233;SDS011;49514;43.538;-5.708;2023-08-20T00:04:25;4.05;;;2.85;;
60233;SDS011;49514;43.538;-5.708;2023-08-20T00:06:52;5.07;;;2.85;;
60233;SDS011;49514;43.538;-5.708;2023-08-20T00:09:19;6.47;;;3.28;;
60233;SDS011;49514;43.538;-5.708;2023-08-20T00:11:45;6.55;;;3.47;;
60233;SDS011;49514;43.538;-5.708;2023-08-20T00:14:15;4.88;;;3.67;;
60233;SDS011;49514;43.538;-5.708;2023-08-20T00:16:43;8.18;;;4.25;;
60233;SDS011;49514;43.538;-5.708;2023-08-20T00:19:10;4.38;;;3.95;;
60233;SDS011;49514;43.538;-5.708;2023-08-20T00:21:40;4.35;;;3.95;;
60233;SDS011;49514;43.538;-5.708;2023-08-20T00:24:08;4.60;;;3.90;;
60233;SDS011;49514;43.538;-5.708;2023-08-20T00:26:35;4.53;;;3.72;;
60233;SDS011;49514;43.538;-5.708;2023-08-20T00:29:02;4.85;;;3.97;;
60233;SDS011;49514;43.538;-5.708;2023-08-20T00:31:29;5.95;;;3.97;;
60233;SDS011;49514;43.538;-5.708;2023-08-20T00:33:56;4.65;;;3.78;;
60233;SDS011;49514;43.538;-5.708;2023-08-20T00:36:22;10.48;;;3.80;;
60233;SDS011;49514;43.538;-5.708;2023-08-20T00:38:49;3.70;;;3.40;;
60233;SDS011;49514;43.538;-5.708;2023-08-20T00:41:17;7.15;;;3.75;;
60233;SDS011;49514;43.538;-5.708;2023-08-20T00:43:44;4.15;;;3.40;;
60233;SDS011;49514;43.538;-5.708;2023-08-20T00:46:11;4.03;;;3.33;;
60233;SDS011;49514;43.538;-5.708;2023-08-20T00:48:38;3.83;;;3.38;;
60233;SDS011;49514;43.538;-5.708;2023-08-20T00:51:05;4.30;;;3.22;;
60233;SDS011;49514;43.538;-5.708;2023-08-20T00:53:32;4.03;;;3.10;;
60233;SDS011;49514;43.538;-5.708;2023-08-20T00:55:58;6.93;;;3.28;;
60233;SDS011;49514;43.538;-5.708;2023-08-20T00:58:25;5.95;;;4.28;;
60233;SDS011;49514;43.538;-5.708;2023-08-20T01:00:52;9.30;;;4.70;;
60233;SDS011;49514;43.538;-5.708;2023-08-20T01:03:18;5.70;;;4.10;;
60233;SDS011;49514;43.538;-5.708;2023-08-20T01:05:46;6.80;;;4.40;;
60233;SDS011;49514;43.538;-5.708;2023-08-20T01:11:20;6.53;;;4.15;;
60233;SDS011;49514;43.538;-5.708;2023-08-20T01:13:54;6.88;;;4.45;;
60233;SDS011;49514;43.538;-5.708;2023-08-20T01:16:21;5.38;;;4.30;;
60233;SDS011;49514;43.538;-5.708;2023-08-20T01:18:48;8.77;;;4.50;;
60233;SDS011;49514;43.538;-5.708;2023-08-20T01:21:27;8.00;;;4.60;;
60233;SDS011;49514;43.538;-5.708;2023-08-20T01:29:37;8.18;;;4.15;;
60233;SDS011;49514;43.538;-5.708;2023-08-20T01:32:05;5.95;;;4.13;;
60233;SDS011;49514;43.538;-5.708;2023-08-20T01:34:33;5.57;;;3.95;;
60233;SDS011;49514;43.538;-5.708;2023-08-20T01:37:00;8.02;;;3.65;;
60233;SDS011;49514;43.538;-5.708;2023-08-20T01:39:27;7.32;;;3.60;;
60233;SDS011;49514;43.538;-5.708;2023-08-20T01:41:54;6.45;;;3.92;;
60233;SDS011;49514;43.538;-5.708;2023-08-20T01:44:20;4.50;;;3.53;;
60233;SDS011;49514;43.538;-5.708;2023-08-20T01:46:47;5.53;;;3.60;;
60233;SDS011;49514;43.538;-5.708;2023-08-20T01:49:13;5.95;;;3.08;;
60233;SDS011;49514;43.538;-5.708;2023-08-20T01:51:40;4.22;;;3.42;;
60233;SDS011;49514;43.538;-5.708;2023-08-20T01:54:07;4.10;;;3.30;;
60233;SDS011;49514;43.538;-5.708;2023-08-20T01:56:33;5.68;;;3.15;;
60233;SDS011;49514;43.538;-5.708;2023-08-20T01:59:00;4.35;;;3.67;;
60233;SDS011;49514;43.538;-5.708;2023-08-20T02:01:26;5.45;;;3.45;;
60233;SDS011;49514;43.538;-5.708;2023-08-20T02:03:53;4.28;;;3.13;;
60233;SDS011;49514;43.538;-5.708;2023-08-20T02:06:20;6.50;;;3.55;;
60233;SDS011;49514;43.538;-5.708;2023-08-20T02:08:46;6.70;;;3.30;;
60233;SDS011;49514;43.538;-5.708;2023-08-20T02:11:13;7.47;;;3.72;;
60233;SDS011;49514;43.538;-5.708;2023-08-20T02:13:40;7.18;;;3.53;;
60233;SDS011;49514;43.538;-5.708;2023-08-20T02:16:06;5.03;;;3.63;;
60233;SDS011;49514;43.538;-5.708;2023-08-20T02:18:33;6.18;;;3.30;;
60233;SDS011;49514;43.538;-5.708;2023-08-20T02:21:01;5.55;;;3.40;;
60233;SDS011;49514;43.538;-5.708;2023-08-20T02:23:28;4.97;;;3.22;;
60233;SDS011;49514;43.538;-5.708;2023-08-20T02:25:55;4.55;;;2.97;;
60233;SDS011;49514;43.538;-5.708;2023-08-20T02:28:21;4.38;;;3.10;;
60233;SDS011;49514;43.538;-5.708;2023-08-20T02:30:50;5.32;;;3.28;;
60233;SDS011;49514;43.538;-5.708;2023-08-20T02:33:17;6.05;;;3.38;;
60233;SDS011;49514;43.538;-5.708;2023-08-20T02:35:43;4.95;;;3.50;;
60233;SDS011;49514;43.538;-5.708;2023-08-20T02:38:10;5.35;;;3.63;;
60233;SDS011;49514;43.538;-5.708;2023-08-20T02:40:40;5.68;;;3.70;;
60233;SDS011;49514;43.538;-5.708;2023-08-20T02:43:08;5.93;;;3.75;;
60233;SDS011;49514;43.538;-5.708;2023-08-20T02:45:39;4.45;;;3.60;;
60233;SDS011;49514;43.538;-5.708;2023-08-20T02:48:07;5.03;;;3.10;;
60233;SDS011;49514;43.538;-5.708;2023-08-20T02:50:35;4.78;;;3.40;;
60233;SDS011;49514;43.538;-5.708;2023-08-20T02:53:02;5.88;;;3.35;;
60233;SDS011;49514;43.538;-5.708;2023-08-20T02:55:30;8.98;;;3.35;;
60233;SDS011;49514;43.538;-5.708;2023-08-20T02:57:57;4.55;;;3.28;;
60233;SDS011;49514;43.538;-5.708;2023-08-20T03:03:15;4.22;;;3.42;;
60233;SDS011;49514;43.538;-5.708;2023-08-20T03:05:43;9.18;;;3.65;;
60233;SDS011;49514;43.538;-5.708;2023-08-20T03:08:10;10.55;;;3.58;;
60233;SDS011;49514;43.538;-5.708;2023-08-20T03:10:37;6.53;;;3.92;;
60233;SDS011;49514;43.538;-5.708;2023-08-20T03:13:03;8.73;;;3.70;;
60233;SDS011;49514;43.538;-5.708;2023-08-20T03:15:30;4.95;;;3.75;;
60233;SDS011;49514;43.538;-5.708;2023-08-20T03:17:57;7.85;;;3.30;;
60233;SDS011;49514;43.538;-5.708;2023-08-20T03:20:24;5.60;;;3.13;;
60233;SDS011;49514;43.538;-5.708;2023-08-20T03:22:51;6.20;;;3.78;;
60233;SDS011;49514;43.538;-5.708;2023-08-20T03:25:17;5.68;;;3.20;;
60233;SDS011;49514;43.538;-5.708;2023-08-20T03:27:45;4.32;;;2.83;;
60233;SDS011;49514;43.538;-5.708;2023-08-20T03:30:12;3.65;;;3.00;;
60233;SDS011;49514;43.538;-5.708;2023-08-20T03:32:41;4.57;;;3.40;;
60233;SDS011;49514;43.538;-5.708;2023-08-20T03:35:08;6.68;;;3.47;;
60233;SDS011;49514;43.538;-5.708;2023-08-20T03:37:36;5.65;;;3.35;;
60233;SDS011;49514;43.538;-5.708;2023-08-20T03:40:03;4.18;;;3.30;;
60233;SDS011;49514;43.538;-5.708;2023-08-20T03:42:30;5.65;;;4.00;;
60233;SDS011;49514;43.538;-5.708;2023-08-20T03:44:57;4.90;;;4.03;;
60233;SDS011;49514;43.538;-5.708;2023-08-20T03:47:24;5.50;;;4.35;;
60233;SDS011;49514;43.538;-5.708;2023-08-20T03:49:52;6.07;;;4.35;;
60233;SDS011;49514;43.538;-5.708;2023-08-20T03:52:18;7.18;;;4.50;;
60233;SDS011;49514;43.538;-5.708;2023-08-20T03:54:45;7.93;;;4.47;;
60233;SDS011;49514;43.538;-5.708;2023-08-20T03:57:12;8.90;;;5.13;;
60233;SDS011;49514;43.538;-5.708;2023-08-20T03:59:38;10.27;;;5.55;;
60233;SDS011;49514;43.538;-5.708;2023-08-20T04:02:05;10.35;;;5.05;;
60233;SDS011;49514;43.538;-5.708;2023-08-20T04:04:32;6.78;;;4.70;;
60233;SDS011;49514;43.538;-5.708;2023-08-20T04:06:58;6.72;;;4.70;;
60233;SDS011;49514;43.538;-5.708;2023-08-20T04:09:25;6.68;;;4.38;;
60233;SDS011;49514;43.538;-5.708;2023-08-20T04:11:51;7.90;;;4.40;;
60233;SDS011;49514;43.538;-5.708;2023-08-20T04:14:18;6.05;;;4.63;;
60233;SDS011;49514;43.538;-5.708;2023-08-20T04:16:45;6.50;;;3.80;;
60233;SDS011;49514;43.538;-5.708;2023-08-20T04:19:11;7.22;;;4.22;;
60233;SDS011;49514;43.538;-5.708;2023-08-20T04:21:38;8.50;;;4.45;;
60233;SDS011;49514;43.538;-5.708;2023-08-20T04:24:05;9.13;;;4.68;;
60233;SDS011;49514;43.538;-5.708;2023-08-20T04:26:32;5.95;;;4.28;;
60233;SDS011;49514;43.538;-5.708;2023-08-20T04:28:59;6.38;;;4.13;;
60233;SDS011;49514;43.538;-5.708;2023-08-20T04:31:26;13.85;;;4.30;;
60233;SDS011;49514;43.538;-5.708;2023-08-20T04:34:01;9.43;;;4.80;;
60233;SDS011;49514;43.538;-5.708;2023-08-20T04:36:39;7.00;;;3.92;;
60233;SDS011;49514;43.538;-5.708;2023-08-20T04:39:06;6.72;;;4.15;;
60233;SDS011;49514;43.538;-5.708;2023-08-20T04:41:35;8.50;;;4.20;;
60233;SDS011;49514;43.538;-5.708;2023-08-20T04:44:02;6.80;;;3.85;;
60233;SDS011;49514;43.538;-5.708;2023-08-20T04:46:29;7.38;;;3.95;;
60233;SDS011;49514;43.538;-5.708;2023-08-20T04:48:56;10.40;;;3.53;;
60233;SDS011;49514;43.538;-5.708;2023-08-20T04:51:23;6.78;;;3.65;;
60233;SDS011;49514;43.538;-5.708;2023-08-20T04:53:49;5.10;;;3.40;;
60233;SDS011;49514;43.538;-5.708;2023-08-20T04:56:16;5.32;;;3.28;;
60233;SDS011;49514;43.538;-5.708;2023-08-20T04:58:43;9.00;;;3.78;;
60233;SDS011;49514;43.538;-5.708;2023-08-20T05:01:09;6.65;;;3.53;;
60233;SDS011;49514;43.538;-5.708;2023-08-20T05:03:37;6.90;;;3.30;;
60233;SDS011;49514;43.538;-5.708;2023-08-20T05:06:03;7.32;;;3.60;;
60233;SDS011;49514;43.538;-5.708;2023-08-20T05:08:30;5.53;;;3.42;;
60233;SDS011;49514;43.538;-5.708;2023-08-20T05:10:57;6.15;;;3.50;;
60233;SDS011;49514;43.538;-5.708;2023-08-20T05:13:23;8.88;;;3.58;;
60233;SDS011;49514;43.538;-5.708;2023-08-20T05:15:50;7.13;;;3.53;;
60233;SDS011;49514;43.538;-5.708;2023-08-20T05:18:17;4.65;;;3.30;;
60233;SDS011;49514;43.538;-5.708;2023-08-20T05:20:44;7.72;;;4.07;;
60233;SDS011;49514;43.538;-5.708;2023-08-20T05:23:10;7.00;;;3.63;;
60233;SDS011;49514;43.538;-5.708;2023-08-20T05:25:37;8.48;;;3.60;;
60233;SDS011;49514;43.538;-5.708;2023-08-20T05:28:05;8.52;;;4.57;;
60233;SDS011;49514;43.538;-5.708;2023-08-20T05:30:33;9.05;;;5.20;;
60233;SDS011;49514;43.538;-5.708;2023-08-20T05:33:00;10.88;;;4.60;;
60233;SDS011;49514;43.538;-5.708;2023-08-20T05:35:30;8.82;;;4.75;;
60233;SDS011;49514;43.538;-5.708;2023-08-20T05:37:57;8.68;;;5.00;;
60233;SDS011;49514;43.538;-5.708;2023-08-20T05:40:24;7.80;;;3.92;;
60233;SDS011;49514;43.538;-5.708;2023-08-20T05:42:50;8.15;;;4.57;;
60233;SDS011;49514;43.538;-5.708;2023-08-20T05:45:17;6.65;;;4.38;;
60233;SDS011;49514;43.538;-5.708;2023-08-20T05:47:44;7.55;;;4.63;;
60233;SDS011;49514;43.538;-5.708;2023-08-20T05:50:11;8.30;;;4.32;;
60233;SDS011;49514;43.538;-5.708;2023-08-20T05:52:37;9.60;;;4.63;;
60233;SDS011;49514;43.538;-5.708;2023-08-20T05:55:04;10.38;;;5.03;;
60233;SDS011;49514;43.538;-5.708;2023-08-20T05:57:31;6.80;;;4.63;;
60233;SDS011;49514;43.538;-5.708;2023-08-20T05:59:58;7.55;;;4.97;;
60233;SDS011;49514;43.538;-5.708;2023-08-20T06:02:25;10.13;;;5.25;;
60233;SDS011;49514;43.538;-5.708;2023-08-20T06:04:52;9.18;;;5.32;;
60233;SDS011;49514;43.538;-5.708;2023-08-20T06:07:18;9.25;;;4.97;;
60233;SDS011;49514;43.538;-5.708;2023-08-20T06:09:45;8.02;;;4.20;;
60233;SDS011;49514;43.538;-5.708;2023-08-20T06:12:12;8.15;;;4.32;;
60233;SDS011;49514;43.538;-5.708;2023-08-20T06:14:38;6.72;;;3.90;;
60233;SDS011;49514;43.538;-5.708;2023-08-20T06:17:05;5.38;;;3.60;;
60233;SDS011;49514;43.538;-5.708;2023-08-20T06:19:31;7.80;;;4.30;;
60233;SDS011;49514;43.538;-5.708;2023-08-20T06:21:58;8.35;;;4.20;;
60233;SDS011;49514;43.538;-5.708;2023-08-20T06:24:25;6.15;;;4.40;;
60233;SDS011;49514;43.538;-5.708;2023-08-20T06:26:52;7.68;;;4.35;;
60233;SDS011;49514;43.538;-5.708;2023-08-20T06:29:18;7.45;;;4.75;;
60233;SDS011;49514;43.538;-5.708;2023-08-20T06:31:47;7.05;;;4.65;;
60233;SDS011;49514;43.538;-5.708;2023-08-20T06:34:15;6.57;;;4.20;;
60233;SDS011;49514;43.538;-5.708;2023-08-20T06:36:42;7.28;;;4.18;;
60233;SDS011;49514;43.538;-5.708;2023-08-20T06:39:08;7.03;;;4.15;;
60233;SDS011;49514;43.538;-5.708;2023-08-20T06:41:35;6.80;;;4.20;;
60233;SDS011;49514;43.538;-5.708;2023-08-20T06:44:02;5.65;;;3.85;;
60233;SDS011;49514;43.538;-5.708;2023-08-20T06:46:29;6.10;;;4.30;;
60233;SDS011;49514;43.538;-5.708;2023-08-20T06:48:56;5.40;;;3.67;;
60233;SDS011;49514;43.538;-5.708;2023-08-20T06:51:22;6.97;;;4.00;;
60233;SDS011;49514;43.538;-5.708;2023-08-20T06:53:51;8.73;;;4.68;;
60233;SDS011;49514;43.538;-5.708;2023-08-20T06:56:17;6.85;;;4.30;;
60233;SDS011;49514;43.538;-5.708;2023-08-20T06:58:44;8.88;;;4.82;;
60233;SDS011;49514;43.538;-5.708;2023-08-20T07:01:11;6.65;;;4.40;;
60233;SDS011;49514;43.538;-5.708;2023-08-20T07:03:39;6.53;;;4.47;;
60233;SDS011;49514;43.538;-5.708;2023-08-20T07:06:07;11.30;;;5.32;;
60233;SDS011;49514;43.538;-5.708;2023-08-20T07:08:35;10.75;;;5.07;;
60233;SDS011;49514;43.538;-5.708;2023-08-20T07:11:04;9.10;;;5.40;;
60233;SDS011;49514;43.538;-5.708;2023-08-20T07:13:31;11.00;;;5.65;;
60233;SDS011;49514;43.538;-5.708;2023-08-20T07:15:58;8.70;;;5.10;;
60233;SDS011;49514;43.538;-5.708;2023-08-20T07:18:24;7.38;;;5.30;;
60233;SDS011;49514;43.538;-5.708;2023-08-20T07:20:51;8.43;;;4.97;;
60233;SDS011;49514;43.538;-5.708;2023-08-20T07:23:18;7.20;;;4.60;;
60233;SDS011;49514;43.538;-5.708;2023-08-20T07:25:45;6.40;;;4.47;;
60233;SDS011;49514;43.538;-5.708;2023-08-20T07:28:12;4.82;;;3.50;;
60233;SDS011;49514;43.538;-5.708;2023-08-20T07:30:39;4.63;;;3.47;;
60233;SDS011;49514;43.538;-5.708;2023-08-20T07:33:06;4.30;;;3.20;;
60233;SDS011;49514;43.538;-5.708;2023-08-20T07:35:33;4.95;;;3.20;;
60233;SDS011;49514;43.538;-5.708;2023-08-20T07:38:01;4.85;;;3.20;;
60233;SDS011;49514;43.538;-5.708;2023-08-20T07:40:28;5.22;;;3.30;;
60233;SDS011;49514;43.538;-5.708;2023-08-20T07:42:54;4.60;;;3.50;;
60233;SDS011;49514;43.538;-5.708;2023-08-20T07:45:23;4.38;;;3.30;;
60233;SDS011;49514;43.538;-5.708;2023-08-20T07:47:50;4.75;;;3.10;;
60233;SDS011;49514;43.538;-5.708;2023-08-20T07:50:17;15.05;;;2.97;;
60233;SDS011;49514;43.538;-5.708;2023-08-20T07:52:44;4.43;;;2.67;;
60233;SDS011;49514;43.538;-5.708;2023-08-20T07:55:11;8.40;;;3.15;;
60233;SDS011;49514;43.538;-5.708;2023-08-20T07:57:38;8.48;;;3.83;;
60233;SDS011;49514;43.538;-5.708;2023-08-20T08:00:04;9.50;;;3.75;;
60233;SDS011;49514;43.538;-5.708;2023-08-20T08:02:37;8.05;;;3.30;;
60233;SDS011;49514;43.538;-5.708;2023-08-20T08:05:04;7.72;;;3.55;;
60233;SDS011;49514;43.538;-5.708;2023-08-20T08:07:31;6.22;;;3.55;;
60233;SDS011;49514;43.538;-5.708;2023-08-20T08:09:58;8.27;;;3.20;;
60233;SDS011;49514;43.538;-5.708;2023-08-20T08:12:24;7.25;;;3.40;;
60233;SDS011;49514;43.538;-5.708;2023-08-20T08:14:51;6.68;;;3.58;;
60233;SDS011;49514;43.538;-5.708;2023-08-20T08:17:18;6.93;;;3.08;;
60233;SDS011;49514;43.538;-5.708;2023-08-20T08:19:45;7.68;;;3.40;;
60233;SDS011;49514;43.538;-5.708;2023-08-20T08:22:13;6.82;;;3.10;;
60233;SDS011;49514;43.538;-5.708;2023-08-20T08:24:40;10.93;;;3.30;;
60233;SDS011;49514;43.538;-5.708;2023-08-20T08:27:08;6.95;;;3.45;;
60233;SDS011;49514;43.538;-5.708;2023-08-20T08:29:36;8.85;;;3.33;;
60233;SDS011;49514;43.538;-5.708;2023-08-20T08:32:02;6.50;;;3.45;;
60233;SDS011;49514;43.538;-5.708;2023-08-20T08:34:29;6.13;;;3.90;;
60233;SDS011;49514;43.538;-5.708;2023-08-20T08:36:56;5.15;;;3.50;;
60233;SDS011;49514;43.538;-5.708;2023-08-20T08:39:22;5.03;;;3.67;;
60233;SDS011;49514;43.538;-5.708;2023-08-20T08:41:49;6.70;;;3.95;;
60233;SDS011;49514;43.538;-5.708;2023-08-20T08:44:19;7.88;;;3.78;;
60233;SDS011;49514;43.538;-5.708;2023-08-20T08:46:48;6.03;;;3.70;;
60233;SDS011;49514;43.538;-5.708;2023-08-20T08:49:16;6.13;;;4.00;;
60233;SDS011;49514;43.538;-5.708;2023-08-20T08:51:44;5.97;;;4.13;;
60233;SDS011;49514;43.538;-5.708;2023-08-20T08:54:12;6.47;;;4.10;;
60233;SDS011;49514;43.538;-5.708;2023-08-20T08:56:42;7.43;;;4.05;;
60233;SDS011;49514;43.538;-5.708;2023-08-20T08:59:09;7.20;;;4.43;;
60233;SDS011;49514;43.538;-5.708;2023-08-20T09:01:38;6.55;;;4.28;;
60233;SDS011;49514;43.538;-5.708;2023-08-20T09:04:05;6.47;;;4.55;;
60233;SDS011;49514;43.538;-5.708;2023-08-20T09:06:51;8.25;;;4.78;;
60233;SDS011;49514;43.538;-5.708;2023-08-20T09:09:21;6.38;;;4.55;;
60233;SDS011;49514;43.538;-5.708;2023-08-20T09:11:48;6.10;;;4.22;;
60233;SDS011;49514;43.538;-5.708;2023-08-20T09:14:21;5.53;;;4.05;;
60233;SDS011;49514;43.538;-5.708;2023-08-20T09:16:59;5.60;;;3.72;;
60233;SDS011;49514;43.538;-5.708;2023-08-20T09:19:28;7.63;;;4.35;;
60233;SDS011;49514;43.538;-5.708;2023-08-20T09:22:05;6.47;;;4.60;;
60233;SDS011;49514;43.538;-5.708;2023-08-20T09:24:33;7.85;;;4.28;;
60233;SDS011;49514;43.538;-5.708;2023-08-20T09:27:07;6.63;;;4.43;;
60233;SDS011;49514;43.538;-5.708;2023-08-20T09:29:54;6.82;;;4.30;;
60233;SDS011;49514;43.538;-5.708;2023-08-20T09:32:24;9.93;;;6.43;;
60233;SDS011;49514;43.538;-5.708;2023-08-20T09:34:53;9.93;;;5.55;;
60233;SDS011;49514;43.538;-5.708;2023-08-20T09:37:21;8.85;;;5.50;;
60233;SDS011;49514;43.538;-5.708;2023-08-20T09:39:50;10.38;;;5.75;;
60233;SDS011;49514;43.538;-5.708;2023-08-20T09:42:17;12.52;;;5.95;;
60233;SDS011;49514;43.538;-5.708;2023-08-20T09:44:45;11.25;;;5.85;;
60233;SDS011;49514;43.538;-5.708;2023-08-20T09:47:13;11.88;;;6.15;;
60233;SDS011;49514;43.538;-5.708;2023-08-20T09:49:44;10.90;;;5.88;;
60233;SDS011;49514;43.538;-5.708;2023-08-20T09:52:21;9.80;;;6.13;;
60233;SDS011;49514;43.538;-5.708;2023-08-20T09:57:38;10.38;;;6.20;;
60233;SDS011;49514;43.538;-5.708;2023-08-20T10:00:06;9.82;;;5.10;;
60233;SDS011;49514;43.538;-5.708;2023-08-20T10:02:41;6.47;;;4.38;;
60233;SDS011;49514;43.538;-5.708;2023-08-20T10:05:09;4.40;;;3.10;;
60233;SDS011;49514;43.538;-5.708;2023-08-20T10:07:37;5.60;;;3.40;;
60233;SDS011;49514;43.538;-5.708;2023-08-20T10:10:05;5.80;;;3.17;;
60233;SDS011;49514;43.538;-5.708;2023-08-20T10:12:39;5.88;;;3.20;;
60233;SDS011;49514;43.538;-5.708;2023-08-20T10:15:07;4.50;;;2.70;;
60233;SDS011;49514;43.538;-5.708;2023-08-20T10:17:36;2.92;;;2.22;;
60233;SDS011;49514;43.538;-5.708;2023-08-20T10:20:04;5.32;;;2.45;;
60233;SDS011;49514;43.538;-5.708;2023-08-20T10:25:06;5.00;;;3.15;;
60233;SDS011;49514;43.538;-5.708;2023-08-20T10:27:35;7.72;;;3.20;;
60233;SDS011;49514;43.538;-5.708;2023-08-20T10:30:11;7.03;;;3.45;;
60233;SDS011;49514;43.538;-5.708;2023-08-20T10:32:49;4.47;;;2.50;;
60233;SDS011;49514;43.538;-5.708;2023-08-20T10:35:28;6.30;;;2.50;;
60233;SDS011;49514;43.538;-5.708;2023-08-20T10:38:13;6.15;;;2.83;;
60233;SDS011;49514;43.538;-5.708;2023-08-20T10:43:30;5.05;;;2.17;;
60233;SDS011;49514;43.538;-5.708;2023-08-20T10:48:37;6.10;;;2.20;;
60233;SDS011;49514;43.538;-5.708;2023-08-20T10:51:12;9.95;;;2.33;;
60233;SDS011;49514;43.538;-5.708;2023-08-20T10:53:41;5.68;;;2.25;;
60233;SDS011;49514;43.538;-5.708;2023-08-20T10:59:06;4.60;;;1.75;;
60233;SDS011;49514;43.538;-5.708;2023-08-20T11:01:36;5.90;;;1.63;;
60233;SDS011;49514;43.538;-5.708;2023-08-20T11:04:04;5.28;;;1.85;;
60233;SDS011;49514;43.538;-5.708;2023-08-20T11:06:33;5.40;;;1.73;;
60233;SDS011;49514;43.538;-5.708;2023-08-20T11:09:00;5.20;;;1.75;;
60233;SDS011;49514;43.538;-5.708;2023-08-20T11:11:31;5.38;;;1.80;;
60233;SDS011;49514;43.538;-5.708;2023-08-20T11:14:05;7.40;;;2.10;;
60233;SDS011;49514;43.538;-5.708;2023-08-20T11:16:36;7.45;;;2.13;;
60233;SDS011;49514;43.538;-5.708;2023-08-20T11:19:03;6.30;;;2.08;;
60233;SDS011;49514;43.538;-5.708;2023-08-20T11:21:39;7.10;;;2.28;;
60233;SDS011;49514;43.538;-5.708;2023-08-20T11:24:08;6.75;;;1.92;;
60233;SDS011;49514;43.538;-5.708;2023-08-20T11:26:35;5.47;;;1.80;;
60233;SDS011;49514;43.538;-5.708;2023-08-20T11:29:11;6.63;;;1.88;;
60233;SDS011;49514;43.538;-5.708;2023-08-20T11:31:39;7.95;;;2.20;;
60233;SDS011;49514;43.538;-5.708;2023-08-20T11:34:07;5.75;;;1.70;;
60233;SDS011;49514;43.538;-5.708;2023-08-20T11:36:34;6.63;;;1.88;;
60233;SDS011;49514;43.538;-5.708;2023-08-20T11:39:01;8.73;;;2.20;;
60233;SDS011;49514;43.538;-5.708;2023-08-20T11:41:28;7.60;;;1.92;;
60233;SDS011;49514;43.538;-5.708;2023-08-20T11:43:55;7.45;;;1.90;;
60233;SDS011;49514;43.538;-5.708;2023-08-20T11:46:23;11.20;;;2.05;;
60233;SDS011;49514;43.538;-5.708;2023-08-20T11:51:35;8.88;;;1.98;;
60233;SDS011;49514;43.538;-5.708;2023-08-20T11:54:08;11.27;;;2.60;;
60233;SDS011;49514;43.538;-5.708;2023-08-20T11:56:43;9.10;;;1.80;;
60233;SDS011;49514;43.538;-5.708;2023-08-20T11:59:20;11.07;;;2.35;;
60233;SDS011;49514;43.538;-5.708;2023-08-20T12:01:51;7.85;;;1.98;;
60233;SDS011;49514;43.538;-5.708;2023-08-20T12:04:29;8.38;;;2.13;;
60233;SDS011;49514;43.538;-5.708;2023-08-20T12:09:36;8.52;;;1.70;;
60233;SDS011;49514;43.538;-5.708;2023-08-20T12:12:05;6.05;;;2.05;;
60233;SDS011;49514;43.538;-5.708;2023-08-20T12:14:32;10.05;;;1.88;;
60233;SDS011;49514;43.538;-5.708;2023-08-20T12:17:00;9.45;;;1.70;;
60233;SDS011;49514;43.538;-5.708;2023-08-20T12:19:27;8.15;;;2.17;;
60233;SDS011;49514;43.538;-5.708;2023-08-20T12:21:54;8.63;;;2.00;;
60233;SDS011;49514;43.538;-5.708;2023-08-20T12:24:20;9.23;;;2.13;;
60233;SDS011;49514;43.538;-5.708;2023-08-20T12:26:47;7.78;;;1.60;;
60233;SDS011;49514;43.538;-5.708;2023-08-20T12:29:14;7.57;;;1.80;;
60233;SDS011;49514;43.538;-5.708;2023-08-20T12:31:42;7.15;;;1.75;;
60233;SDS011;49514;43.538;-5.708;2023-08-20T12:34:09;6.25;;;1.75;;
60233;SDS011;49514;43.538;-5.708;2023-08-20T12:36:35;8.80;;;1.80;;
60233;SDS011;49514;43.538;-5.708;2023-08-20T12:39:02;7.40;;;1.70;;
60233;SDS011;49514;43.538;-5.708;2023-08-20T12:41:30;7.68;;;1.67;;
60233;SDS011;49514;43.538;-5.708;2023-08-20T12:43:58;11.40;;;2.03;;
60233;SDS011;49514;43.538;-5.708;2023-08-20T12:46:24;9.95;;;1.95;;
60233;SDS011;49514;43.538;-5.708;2023-08-20T12:48:51;7.78;;;1.92;;
60233;SDS011;49514;43.538;-5.708;2023-08-20T12:51:18;8.23;;;1.80;;
60233;SDS011;49514;43.538;-5.708;2023-08-20T12:53:45;10.90;;;1.85;;
60233;SDS011;49514;43.538;-5.708;2023-08-20T12:56:12;5.65;;;1.73;;
60233;SDS011;49514;43.538;-5.708;2023-08-20T12:58:40;9.35;;;2.30;;
60233;SDS011;49514;43.538;-5.708;2023-08-20T13:01:07;10.07;;;2.22;;
60233;SDS011;49514;43.538;-5.708;2023-08-20T13:03:34;12.18;;;1.75;;
60233;SDS011;49514;43.538;-5.708;2023-08-20T13:06:01;9.05;;;2.00;;
60233;SDS011;49514;43.538;-5.708;2023-08-20T13:08:28;8.95;;;2.55;;
60233;SDS011;49514;43.538;-5.708;2023-08-20T13:10:56;8.50;;;1.85;;
60233;SDS011;49514;43.538;-5.708;2023-08-20T13:13:23;8.90;;;1.80;;
60233;SDS011;49514;43.538;-5.708;2023-08-20T13:15:51;14.18;;;2.67;;
60233;SDS011;49514;43.538;-5.708;2023-08-20T13:18:18;8.88;;;2.38;;
60233;SDS011;49514;43.538;-5.708;2023-08-20T13:20:46;12.02;;;2.00;;
60233;SDS011;49514;43.538;-5.708;2023-08-20T13:23:13;8.70;;;1.95;;
60233;SDS011;49514;43.538;-5.708;2023-08-20T13:25:40;10.45;;;1.90;;
60233;SDS011;49514;43.538;-5.708;2023-08-20T13:28:08;12.23;;;2.00;;
60233;SDS011;49514;43.538;-5.708;2023-08-20T13:30:35;7.95;;;1.90;;
60233;SDS011;49514;43.538;-5.708;2023-08-20T13:33:02;10.77;;;2.33;;
60233;SDS011;49514;43.538;-5.708;2023-08-20T13:35:29;14.25;;;2.10;;
60233;SDS011;49514;43.538;-5.708;2023-08-20T13:37:56;7.30;;;1.95;;
60233;SDS011;49514;43.538;-5.708;2023-08-20T13:40:22;10.82;;;2.45;;
60233;SDS011;49514;43.538;-5.708;2023-08-20T13:42:49;12.40;;;2.10;;
60233;SDS011;49514;43.538;-5.708;2023-08-20T13:45:16;9.35;;;1.85;;
60233;SDS011;49514;43.538;-5.708;2023-08-20T13:47:42;9.32;;;2.10;;
60233;SDS011;49514;43.538;-5.708;2023-08-20T13:50:10;13.57;;;2.35;;
60233;SDS011;49514;43.538;-5.708;2023-08-20T13:52:37;10.52;;;2.42;;
60233;SDS011;49514;43.538;-5.708;2023-08-20T13:55:04;9.60;;;2.10;;
60233;SDS011;49514;43.538;-5.708;2023-08-20T13:57:32;12.18;;;2.10;;
60233;SDS011;49514;43.538;-5.708;2023-08-20T14:00:03;11.68;;;1.90;;
60233;SDS011;49514;43.538;-5.708;2023-08-20T14:02:35;15.02;;;3.08;;
60233;SDS011;49514;43.538;-5.708;2023-08-20T14:05:02;13.88;;;2.58;;
60233;SDS011;49514;43.538;-5.708;2023-08-20T14:07:32;10.90;;;2.40;;
60233;SDS011;49514;43.538;-5.708;2023-08-20T14:10:00;9.82;;;2.38;;
60233;SDS011;49514;43.538;-5.708;2023-08-20T14:12:28;9.73;;;2.17;;
60233;SDS011;49514;43.538;-5.708;2023-08-20T14:14:55;11.48;;;2.40;;
60233;SDS011;49514;43.538;-5.708;2023-08-20T14:17:22;11.98;;;2.17;;
60233;SDS011;49514;43.538;-5.708;2023-08-20T14:19:49;14.82;;;2.30;;
60233;SDS011;49514;43.538;-5.708;2023-08-20T14:22:17;8.75;;;1.90;;
60233;SDS011;49514;43.538;-5.708;2023-08-20T14:24:44;14.23;;;2.50;;
60233;SDS011;49514;43.538;-5.708;2023-08-20T14:27:12;13.73;;;2.50;;
60233;SDS011;49514;43.538;-5.708;2023-08-20T14:29:40;11.30;;;2.38;;
60233;SDS011;49514;43.538;-5.708;2023-08-20T14:32:07;11.60;;;2.42;;
60233;SDS011;49514;43.538;-5.708;2023-08-20T14:34:34;10.90;;;2.10;;
60233;SDS011;49514;43.538;-5.708;2023-08-20T14:37:01;12.15;;;2.67;;
60233;SDS011;49514;43.538;-5.708;2023-08-20T14:39:29;11.95;;;2.33;;
60233;SDS011;49514;43.538;-5.708;2023-08-20T14:41:58;8.85;;;2.03;;
60233;SDS011;49514;43.538;-5.708;2023-08-20T14:44:25;12.50;;;2.45;;
60233;SDS011;49514;43.538;-5.708;2023-08-20T14:46:53;14.13;;;2.85;;
60233;SDS011;49514;43.538;-5.708;2023-08-20T14:49:19;11.80;;;2.55;;
60233;SDS011;49514;43.538;-5.708;2023-08-20T14:51:46;11.40;;;2.28;;
60233;SDS011;49514;43.538;-5.708;2023-08-20T14:54:14;11.13;;;2.13;;
60233;SDS011;49514;43.538;-5.708;2023-08-20T14:56:41;12.48;;;2.30;;
60233;SDS011;49514;43.538;-5.708;2023-08-20T14:59:08;12.35;;;2.13;;
60233;SDS011;49514;43.538;-5.708;2023-08-20T15:01:36;11.18;;;2.47;;
60233;SDS011;49514;43.538;-5.708;2023-08-20T15:04:02;8.13;;;2.08;;
60233;SDS011;49514;43.538;-5.708;2023-08-20T15:06:29;12.00;;;2.33;;
60233;SDS011;49514;43.538;-5.708;2023-08-20T15:08:56;12.15;;;2.33;;